createdAt,value
2023-01-29T00:02:05.577Z,44.42
2023-01-29T00:04:33.083Z,44.50
2023-01-29T00:07:00.652Z,44.43
2023-01-29T00:09:28.722Z,44.18
2023-01-29T00:11:57.406Z,44.38
2023-01-29T00:14:26.266Z,44.38
2023-01-29T00:16:53.652Z,44.27
2023-01-29T00:19:21.089Z,44.46
2023-01-29T00:21:48.473Z,44.29
2023-01-29T00:24:15.904Z,44.26
2023-01-29T00:26:43.314Z,44.43
2023-01-29T00:29:12.010Z,44.33
2023-01-29T00:31:39.485Z,44.29
2023-01-29T00:34:07.075Z,44.33
2023-01-29T00:36:34.446Z,44.15
2023-01-29T00:39:03.432Z,44.21
2023-01-29T00:41:49.454Z,44.17
2023-01-29T00:44:36.004Z,44.12
2023-01-29T00:47:03.397Z,44.18
2023-01-29T00:49:31.108Z,44.30
2023-01-29T00:52:16.343Z,44.06
2023-01-29T00:54:43.727Z,44.20
2023-01-29T00:57:11.247Z,44.11
2023-01-29T00:59:39.987Z,44.19
2023-01-29T01:02:24.787Z,44.09
2023-01-29T01:04:52.188Z,44.16
2023-01-29T01:07:19.563Z,44.22
2023-01-29T01:10:04.355Z,44.22
2023-01-29T01:12:31.788Z,44.17
2023-01-29T01:15:00.495Z,44.03
2023-01-29T01:17:27.887Z,44.25
2023-01-29T01:19:55.280Z,44.21
2023-01-29T01:22:22.661Z,44.13
2023-01-29T01:24:50.280Z,44.05
2023-01-29T01:27:19.446Z,44.17
2023-01-29T01:29:46.950Z,44.07
2023-01-29T01:32:15.886Z,43.90
2023-01-29T01:34:45.204Z,44.16
2023-01-29T01:37:12.616Z,44.07
2023-01-29T01:39:39.987Z,44.21
2023-01-29T01:42:07.519Z,44.17
2023-01-29T01:44:55.671Z,44.08
2023-01-29T01:47:27.450Z,44.12
2023-01-29T01:49:54.837Z,44.05
2023-01-29T01:52:22.215Z,44.07
2023-01-29T01:54:49.773Z,44.13
2023-01-29T01:57:18.258Z,44.03
2023-01-29T01:59:48.324Z,44.03
2023-01-29T02:02:33.282Z,44.06
2023-01-29T02:05:19.896Z,44.00
2023-01-29T02:08:06.112Z,44.17
2023-01-29T02:10:37.586Z,44.12
2023-01-29T02:13:05.047Z,44.11
2023-01-29T02:15:32.465Z,44.14
2023-01-29T02:17:59.916Z,44.14
2023-01-29T02:20:29.664Z,44.15
2023-01-29T02:23:31.529Z,44.12
2023-01-29T02:26:05.285Z,44.29
2023-01-29T02:28:36.785Z,44.31
2023-01-29T02:31:09.324Z,44.03
2023-01-29T02:33:42.613Z,44.15
2023-01-29T02:36:15.630Z,44.02
2023-01-29T02:38:46.674Z,44.40
2023-01-29T02:41:15.079Z,44.29
2023-01-29T02:43:46.309Z,44.19
2023-01-29T02:46:17.767Z,44.07
2023-01-29T02:48:46.806Z,44.09
2023-01-29T02:51:19.071Z,44.19
2023-01-29T02:53:50.532Z,44.07
2023-01-29T02:56:18.820Z,43.85
2023-01-29T02:58:48.749Z,44.07
2023-01-29T03:01:18.958Z,44.15
2023-01-29T03:03:46.839Z,44.13
2023-01-29T03:06:18.193Z,44.09
2023-01-29T03:08:49.987Z,44.10
2023-01-29T03:11:17.613Z,44.02
2023-01-29T03:13:48.075Z,44.03
2023-01-29T03:16:19.334Z,44.14
2023-01-29T03:18:50.889Z,44.23
2023-01-29T03:21:38.692Z,44.01
2023-01-29T03:24:24.496Z,44.11
2023-01-29T03:27:09.256Z,44.25
2023-01-29T03:29:55.851Z,44.29
2023-01-29T03:32:23.805Z,44.23
2023-01-29T03:34:53.145Z,44.28
2023-01-29T03:37:22.336Z,44.21
2023-01-29T03:39:49.709Z,44.14
2023-01-29T03:42:20.041Z,44.18
2023-01-29T03:44:54.181Z,44.18
2023-01-29T03:47:22.938Z,44.23
2023-01-29T03:49:57.232Z,44.17
2023-01-29T03:52:26.249Z,44.13
2023-01-29T03:54:57.349Z,44.16
2023-01-29T03:57:27.855Z,44.31
2023-01-29T03:59:58.695Z,44.14
2023-01-29T04:02:28.475Z,44.31
2023-01-29T04:04:57.265Z,44.27
2023-01-29T04:07:24.714Z,44.06
2023-01-29T04:09:53.389Z,44.13
2023-01-29T04:12:22.401Z,44.34
2023-01-29T04:14:49.785Z,44.24
2023-01-29T04:17:19.927Z,44.10
2023-01-29T04:19:47.820Z,44.21
2023-01-29T04:22:16.972Z,44.41
2023-01-29T04:24:44.356Z,44.11
2023-01-29T04:27:26.910Z,44.13
2023-01-29T04:30:01.559Z,44.26
2023-01-29T04:32:33.078Z,44.43
2023-01-29T04:35:09.159Z,44.25
2023-01-29T04:37:38.353Z,44.32
2023-01-29T04:40:13.216Z,44.38
2023-01-29T04:42:43.780Z,44.27
2023-01-29T04:45:15.974Z,44.33
2023-01-29T04:47:48.072Z,44.36
2023-01-29T04:50:16.893Z,44.38
2023-01-29T04:52:48.461Z,44.31
2023-01-29T04:55:18.009Z,44.19
2023-01-29T04:57:48.283Z,44.24
2023-01-29T05:00:18.794Z,44.21
2023-01-29T05:02:47.705Z,44.29
2023-01-29T05:05:15.465Z,44.45
2023-01-29T05:07:42.834Z,44.42
2023-01-29T05:10:10.913Z,44.51
2023-01-29T05:12:38.738Z,44.21
2023-01-29T05:15:10.098Z,44.40
2023-01-29T05:17:37.483Z,44.51
2023-01-29T05:20:07.446Z,44.44
2023-01-29T05:22:34.901Z,44.49
2023-01-29T05:25:02.261Z,44.32
2023-01-29T05:27:48.445Z,44.37
2023-01-29T05:30:16.427Z,44.49
2023-01-29T05:32:43.997Z,44.47
2023-01-29T05:35:12.885Z,44.46
2023-01-29T05:37:40.256Z,44.37
2023-01-29T05:40:09.520Z,44.31
2023-01-29T05:42:36.961Z,44.40
2023-01-29T05:45:04.914Z,44.39
2023-01-29T05:47:32.304Z,44.55
2023-01-29T05:49:59.691Z,44.49
2023-01-29T05:52:28.413Z,44.49
2023-01-29T05:54:55.822Z,44.50
2023-01-29T05:57:23.225Z,44.31
2023-01-29T05:59:50.603Z,44.37
2023-01-29T06:02:17.977Z,44.50
2023-01-29T06:04:45.337Z,44.30
2023-01-29T06:07:12.734Z,44.59
2023-01-29T06:09:41.437Z,44.54
2023-01-29T06:12:08.828Z,44.51
2023-01-29T06:14:36.214Z,44.55
2023-01-29T06:17:04.762Z,44.44
2023-01-29T06:19:32.145Z,44.55
2023-01-29T06:21:59.728Z,44.48
2023-01-29T06:24:27.164Z,44.52
2023-01-29T06:26:55.906Z,44.47
2023-01-29T06:29:23.289Z,44.53
2023-01-29T06:31:50.759Z,44.46
2023-01-29T06:34:18.633Z,44.66
2023-01-29T06:36:46.022Z,44.50
2023-01-29T06:39:13.483Z,44.56
2023-01-29T06:41:40.892Z,44.64
2023-01-29T06:44:09.607Z,44.61
2023-01-29T06:46:37.007Z,44.62
2023-01-29T06:49:04.396Z,44.61
2023-01-29T06:51:31.799Z,44.52
2023-01-29T06:53:59.183Z,44.64
2023-01-29T06:56:26.641Z,44.47
2023-01-29T06:58:54.062Z,44.65
2023-01-29T07:01:35.003Z,44.67
2023-01-29T07:04:03.112Z,44.47
2023-01-29T07:06:30.705Z,44.71
2023-01-29T07:08:58.149Z,44.60
2023-01-29T07:11:25.570Z,44.74
2023-01-29T07:13:53.017Z,44.61
2023-01-29T07:16:20.598Z,44.67
2023-01-29T07:18:49.340Z,44.75
2023-01-29T07:21:16.741Z,44.78
2023-01-29T07:23:44.253Z,44.67
2023-01-29T07:26:11.685Z,44.65
2023-01-29T07:28:39.227Z,44.72
2023-01-29T07:31:06.879Z,44.90
2023-01-29T07:33:34.401Z,44.80
2023-01-29T07:36:03.115Z,44.61
2023-01-29T07:38:30.495Z,44.63
2023-01-29T07:40:57.879Z,44.84
2023-01-29T07:43:25.643Z,44.74
2023-01-29T07:45:53.066Z,44.59
2023-01-29T07:48:20.496Z,44.76
2023-01-29T07:50:55.147Z,45.14
2023-01-29T07:53:23.837Z,44.86
2023-01-29T07:55:51.308Z,44.89
2023-01-29T07:58:18.731Z,44.74
2023-01-29T08:00:46.247Z,44.74
2023-01-29T08:03:15.972Z,44.79
2023-01-29T08:08:07.477Z,44.88
2023-01-29T08:10:36.565Z,44.90
2023-01-29T08:13:04.119Z,44.94
2023-01-29T08:15:31.548Z,44.68
2023-01-29T08:17:58.922Z,44.58
2023-01-29T08:20:26.559Z,44.96
2023-01-29T08:22:59.816Z,44.73
2023-01-29T08:25:27.553Z,44.79
2023-01-29T08:27:57.070Z,44.91
2023-01-29T08:30:24.580Z,44.79
2023-01-29T08:32:51.993Z,44.93
2023-01-29T08:35:19.608Z,44.97
2023-01-29T08:37:53.674Z,44.96
2023-01-29T08:40:21.087Z,45.04
2023-01-29T08:42:48.527Z,44.83
2023-01-29T08:45:17.551Z,44.90
2023-01-29T08:47:47.957Z,44.97
2023-01-29T08:50:15.807Z,44.81
2023-01-29T08:52:43.431Z,44.95
2023-01-29T08:55:11.015Z,45.09
2023-01-29T08:57:38.497Z,45.10
2023-01-29T09:00:06.906Z,44.93
2023-01-29T09:02:35.660Z,45.09
2023-01-29T09:05:03.049Z,45.10
2023-01-29T09:07:30.524Z,45.12
2023-01-29T09:09:57.913Z,45.18
2023-01-29T09:12:25.299Z,45.16
2023-01-29T09:14:52.693Z,44.97
2023-01-29T09:17:20.083Z,44.95
2023-01-29T09:19:48.784Z,44.98
2023-01-29T09:22:16.164Z,44.96
2023-01-29T09:24:43.538Z,45.17
2023-01-29T09:27:10.937Z,45.08
2023-01-29T09:29:38.301Z,45.05
2023-01-29T09:32:06.883Z,45.15
2023-01-29T09:34:34.547Z,45.14
2023-01-29T09:37:03.265Z,45.17
2023-01-29T09:39:30.672Z,45.08
2023-01-29T09:42:00.898Z,44.97
2023-01-29T09:44:29.937Z,44.98
2023-01-29T09:46:57.358Z,45.06
2023-01-29T09:49:26.296Z,45.13
2023-01-29T09:51:54.829Z,45.16
2023-01-29T09:54:25.377Z,44.94
2023-01-29T09:56:54.640Z,45.21
2023-01-29T09:59:22.919Z,44.97
2023-01-29T10:01:54.978Z,45.00
2023-01-29T10:04:50.453Z,45.13
2023-01-29T10:07:38.635Z,44.96
2023-01-29T10:10:15.751Z,45.04
2023-01-29T10:13:04.507Z,44.96
2023-01-29T10:15:41.387Z,44.90
2023-01-29T10:18:24.962Z,45.11
2023-01-29T10:20:56.561Z,45.05
2023-01-29T10:23:25.087Z,45.16
2023-01-29T10:25:53.962Z,44.86
2023-01-29T10:28:22.304Z,45.27
2023-01-29T10:30:50.525Z,44.94
2023-01-29T10:33:25.926Z,44.94
2023-01-29T10:35:56.728Z,44.93
2023-01-29T10:38:29.570Z,45.33
2023-01-29T10:41:01.782Z,45.00
2023-01-29T10:43:32.291Z,45.04
2023-01-29T10:46:04.421Z,44.98
2023-01-29T10:48:45.388Z,44.92
2023-01-29T10:51:20.295Z,45.02
2023-01-29T10:53:54.247Z,45.13
2023-01-29T10:56:29.814Z,45.04
2023-01-29T10:58:59.013Z,45.03
2023-01-29T11:01:27.109Z,45.16
2023-01-29T11:03:59.179Z,44.99
2023-01-29T11:06:29.728Z,45.12
2023-01-29T11:08:59.886Z,45.23
2023-01-29T11:11:31.714Z,45.06
2023-01-29T11:14:01.133Z,45.11
2023-01-29T11:16:29.940Z,45.05
2023-01-29T11:18:58.499Z,45.10
2023-01-29T11:21:26.358Z,45.20
2023-01-29T11:24:06.571Z,45.11
2023-01-29T11:26:36.432Z,45.20
2023-01-29T11:29:03.887Z,45.22
2023-01-29T11:31:36.996Z,45.24
2023-01-29T11:34:06.929Z,45.18
2023-01-29T11:36:36.995Z,45.22
2023-01-29T11:39:16.098Z,45.13
2023-01-29T11:41:45.791Z,45.00
2023-01-29T11:44:23.150Z,45.16
2023-01-29T11:46:50.566Z,45.09
2023-01-29T11:49:32.902Z,45.20
2023-01-29T11:52:01.840Z,45.08
2023-01-29T11:54:30.500Z,45.22
2023-01-29T11:56:59.201Z,45.20
2023-01-29T11:59:42.256Z,45.01
2023-01-29T12:02:20.723Z,45.28
2023-01-29T12:04:48.126Z,45.13
2023-01-29T12:07:16.345Z,45.16
2023-01-29T12:09:50.366Z,45.33
2023-01-29T12:12:28.382Z,45.30
2023-01-29T12:15:11.271Z,45.19
2023-01-29T12:17:38.907Z,45.44
2023-01-29T12:20:10.125Z,45.61
2023-01-29T12:22:41.010Z,45.30
2023-01-29T12:25:09.230Z,45.38
2023-01-29T12:27:39.853Z,45.33
2023-01-29T12:30:11.989Z,45.36
2023-01-29T12:32:42.035Z,45.34
2023-01-29T12:35:13.100Z,45.32
2023-01-29T12:37:44.387Z,45.41
2023-01-29T12:40:14.303Z,45.54
2023-01-29T12:42:44.015Z,45.33
2023-01-29T12:45:13.606Z,45.41
2023-01-29T12:47:42.712Z,45.56
2023-01-29T12:50:15.803Z,45.47
2023-01-29T12:52:45.082Z,45.54
2023-01-29T12:55:14.014Z,45.60
2023-01-29T12:57:43.648Z,45.62
2023-01-29T13:00:12.643Z,45.50
2023-01-29T13:02:40.993Z,45.67
2023-01-29T13:05:16.367Z,45.42
2023-01-29T13:07:46.041Z,45.64
2023-01-29T13:10:15.103Z,45.54
2023-01-29T13:12:49.879Z,45.67
2023-01-29T13:15:22.855Z,45.76
2023-01-29T13:17:51.878Z,45.94
2023-01-29T13:20:21.954Z,45.61
2023-01-29T13:22:49.335Z,45.84
2023-01-29T13:25:17.506Z,45.84
2023-01-29T13:27:47.646Z,45.59
2023-01-29T13:30:29.912Z,45.78
2023-01-29T13:33:08.770Z,45.70
2023-01-29T13:35:37.956Z,45.59
2023-01-29T13:38:05.342Z,45.74
2023-01-29T13:40:34.356Z,45.75
2023-01-29T13:43:03.033Z,46.00
2023-01-29T13:45:34.851Z,45.79
2023-01-29T13:48:10.123Z,45.66
2023-01-29T13:50:39.185Z,45.75
2023-01-29T13:53:08.149Z,45.90
2023-01-29T13:55:36.404Z,45.89
2023-01-29T13:58:05.275Z,45.89
2023-01-29T14:01:01.133Z,45.87
2023-01-29T14:04:04.501Z,46.00
2023-01-29T14:06:40.455Z,45.99
2023-01-29T14:09:35.373Z,45.87
2023-01-29T14:12:02.786Z,46.08
2023-01-29T14:15:05.627Z,45.96
2023-01-29T14:17:32.993Z,45.95
2023-01-29T14:20:02.687Z,46.00
2023-01-29T14:22:30.347Z,45.93
2023-01-29T14:24:58.979Z,46.32
2023-01-29T14:27:26.381Z,46.24
2023-01-29T14:29:59.331Z,46.09
2023-01-29T14:32:26.703Z,46.12
2023-01-29T14:34:56.488Z,46.35
2023-01-29T14:37:28.274Z,46.21
2023-01-29T14:39:57.446Z,46.14
2023-01-29T14:42:26.792Z,46.23
2023-01-29T14:45:00.436Z,46.31
2023-01-29T14:47:55.263Z,46.24
2023-01-29T14:50:54.976Z,46.23
2023-01-29T14:53:40.173Z,46.25
2023-01-29T14:56:12.410Z,46.26
2023-01-29T14:58:42.975Z,46.44
2023-01-29T15:01:18.104Z,46.42
2023-01-29T15:03:48.897Z,46.40
2023-01-29T15:06:18.724Z,46.28
2023-01-29T15:08:48.297Z,46.37
2023-01-29T15:11:37.145Z,46.38
2023-01-29T15:14:27.298Z,46.22
2023-01-29T15:17:03.045Z,46.37
2023-01-29T15:19:32.685Z,46.43
2023-01-29T15:22:04.165Z,46.38
2023-01-29T15:24:31.534Z,46.46
2023-01-29T15:26:58.930Z,46.49
2023-01-29T15:29:27.105Z,46.45
2023-01-29T15:31:54.629Z,46.56
2023-01-29T15:34:23.393Z,46.47
2023-01-29T15:36:51.088Z,46.70
2023-01-29T15:39:18.809Z,46.54
2023-01-29T15:41:46.460Z,46.33
2023-01-29T15:44:16.176Z,46.27
2023-01-29T15:46:44.059Z,46.31
2023-01-29T15:49:16.100Z,46.39
2023-01-29T15:51:44.804Z,46.49
2023-01-29T15:54:15.708Z,46.39
2023-01-29T15:56:45.319Z,46.46
2023-01-29T15:59:16.202Z,46.63
2023-01-29T16:01:43.744Z,46.46
2023-01-29T16:04:12.750Z,46.46
2023-01-29T16:06:41.458Z,46.48
2023-01-29T16:09:11.600Z,46.59
2023-01-29T16:11:40.164Z,46.43
2023-01-29T16:14:07.778Z,46.55
2023-01-29T16:16:35.575Z,46.73
2023-01-29T16:19:02.996Z,46.63
2023-01-29T16:21:31.410Z,46.64
2023-01-29T16:23:59.779Z,46.62
2023-01-29T16:26:29.416Z,46.72
2023-01-29T16:28:57.153Z,46.78
2023-01-29T16:31:26.534Z,46.62
2023-01-29T16:33:54.156Z,46.56
2023-01-29T16:36:22.326Z,46.79
2023-01-29T16:38:51.175Z,46.71
2023-01-29T16:41:31.087Z,46.73
2023-01-29T16:44:01.566Z,46.78
2023-01-29T16:46:36.056Z,46.88
2023-01-29T16:49:03.614Z,46.74
2023-01-29T16:51:31.498Z,46.85
2023-01-29T16:54:00.263Z,46.77
2023-01-29T16:56:30.690Z,46.78
2023-01-29T16:58:58.124Z,46.70
2023-01-29T17:01:25.876Z,46.75
2023-01-29T17:04:05.642Z,46.76
2023-01-29T17:06:33.072Z,46.72
2023-01-29T17:09:00.607Z,46.82
2023-01-29T17:11:32.901Z,46.83
2023-01-29T17:14:00.297Z,46.88
2023-01-29T17:16:29.302Z,46.93
2023-01-29T17:18:56.779Z,46.91
2023-01-29T17:21:24.427Z,46.60
2023-01-29T17:23:51.951Z,46.80
2023-01-29T17:26:19.438Z,46.94
2023-01-29T17:28:49.192Z,46.82
2023-01-29T17:31:16.668Z,47.08
2023-01-29T17:33:44.175Z,47.05
2023-01-29T17:36:13.212Z,47.02
2023-01-29T17:38:40.646Z,46.92
2023-01-29T17:41:09.116Z,47.02
2023-01-29T17:43:36.513Z,46.82
2023-01-29T17:46:05.537Z,46.85
2023-01-29T17:48:33.004Z,46.86
2023-01-29T17:51:01.909Z,47.05
2023-01-29T17:53:44.236Z,46.94
2023-01-29T17:56:19.560Z,46.98
2023-01-29T17:58:46.972Z,46.89
2023-01-29T18:01:15.714Z,46.90
2023-01-29T18:03:43.150Z,47.12
2023-01-29T18:06:10.732Z,47.05
2023-01-29T18:08:38.489Z,47.06
2023-01-29T18:11:06.090Z,46.96
2023-01-29T18:13:35.286Z,47.15
2023-01-29T18:16:02.699Z,47.06
2023-01-29T18:18:31.480Z,47.04
2023-01-29T18:20:58.859Z,47.15
2023-01-29T18:23:26.283Z,47.02
2023-01-29T18:25:57.422Z,47.04
2023-01-29T18:28:24.948Z,47.04
2023-01-29T18:30:52.548Z,47.14
2023-01-29T18:33:19.929Z,47.07
2023-01-29T18:35:48.927Z,47.08
2023-01-29T18:38:16.486Z,46.96
2023-01-29T18:40:43.946Z,47.00
2023-01-29T18:43:11.349Z,46.93
2023-01-29T18:45:38.763Z,47.11
2023-01-29T18:48:06.598Z,47.02
2023-01-29T18:50:34.023Z,47.01
2023-01-29T18:53:04.145Z,47.16
2023-01-29T18:55:31.396Z,47.12
2023-01-29T18:58:27.426Z,47.16
2023-01-29T19:00:48.740Z,47.10
2023-01-29T19:03:16.147Z,47.12
2023-01-29T19:05:43.593Z,47.20
2023-01-29T19:08:12.285Z,47.16
2023-01-29T19:10:40.442Z,47.17
2023-01-29T19:13:07.879Z,47.32
2023-01-29T19:15:35.333Z,47.07
2023-01-29T19:18:04.062Z,47.03
2023-01-29T19:20:31.609Z,47.25
2023-01-29T19:22:59.438Z,47.16
2023-01-29T19:25:28.227Z,47.08
2023-01-29T19:27:55.594Z,47.25
2023-01-29T19:30:22.992Z,47.01
2023-01-29T19:32:50.590Z,47.20
2023-01-29T19:35:18.295Z,47.14
2023-01-29T19:37:46.197Z,47.20
2023-01-29T19:40:14.715Z,47.17
2023-01-29T19:42:43.407Z,47.06
2023-01-29T19:45:11.104Z,47.18
2023-01-29T19:47:41.666Z,47.19
2023-01-29T19:50:10.471Z,47.01
2023-01-29T19:52:50.866Z,47.07
2023-01-29T19:55:19.673Z,47.09
2023-01-29T19:57:48.529Z,47.25
2023-01-29T20:00:17.999Z,47.20
2023-01-29T20:02:45.374Z,47.00
2023-01-29T20:05:12.993Z,47.22
2023-01-29T20:07:42.166Z,47.14
2023-01-29T20:10:11.390Z,47.21
2023-01-29T20:12:38.852Z,47.23
2023-01-29T20:15:08.531Z,47.28
2023-01-29T20:17:35.909Z,47.15
2023-01-29T20:20:03.754Z,47.18
2023-01-29T20:22:31.239Z,47.18
2023-01-29T20:24:58.623Z,47.29
2023-01-29T20:27:26.004Z,47.32
2023-01-29T20:29:53.462Z,47.27
2023-01-29T20:32:22.190Z,47.31
2023-01-29T20:34:51.958Z,47.28
2023-01-29T20:37:19.662Z,47.28
2023-01-29T20:39:47.122Z,47.25
2023-01-29T20:42:14.537Z,47.25
2023-01-29T20:44:41.918Z,47.44
2023-01-29T20:47:09.391Z,47.33
2023-01-29T20:49:38.098Z,47.25
2023-01-29T20:52:06.597Z,47.25
2023-01-29T20:54:34.399Z,47.28
2023-01-29T20:57:01.993Z,47.33
2023-01-29T20:59:29.825Z,47.32
2023-01-29T21:01:57.356Z,47.28
2023-01-29T21:04:24.823Z,47.27
2023-01-29T21:06:53.549Z,47.27
2023-01-29T21:09:21.019Z,47.49
2023-01-29T21:11:48.436Z,47.59
2023-01-29T21:14:15.817Z,47.36
2023-01-29T21:16:43.326Z,47.40
2023-01-29T21:19:10.857Z,47.53
2023-01-29T21:21:38.238Z,47.27
2023-01-29T21:24:08.744Z,47.53
2023-01-29T21:26:38.111Z,47.72
2023-01-29T21:29:05.586Z,47.48
2023-01-29T21:31:33.391Z,47.57
2023-01-29T21:34:01.487Z,47.48
2023-01-29T21:36:28.917Z,47.48
2023-01-29T21:38:56.781Z,47.47
2023-01-29T21:41:45.576Z,47.52
2023-01-29T21:44:12.078Z,47.40
2023-01-29T21:46:39.467Z,47.49
2023-01-29T21:49:06.958Z,47.72
2023-01-29T21:51:34.611Z,47.55
2023-01-29T21:54:03.482Z,47.67
2023-01-29T21:56:32.258Z,47.43
2023-01-29T21:59:00.658Z,47.68
2023-01-29T22:01:37.831Z,47.48
2023-01-29T22:04:07.539Z,47.53
2023-01-29T22:06:34.959Z,47.57
2023-01-29T22:09:02.344Z,47.75
2023-01-29T22:11:29.824Z,47.61
2023-01-29T22:13:58.527Z,47.69
2023-01-29T22:16:25.988Z,47.73
2023-01-29T22:18:53.357Z,47.64
2023-01-29T22:21:20.782Z,47.82
2023-01-29T22:23:48.978Z,47.85
2023-01-29T22:26:16.482Z,47.78
2023-01-29T22:28:43.876Z,47.70
2023-01-29T22:31:12.712Z,47.89
2023-01-29T22:33:40.226Z,47.98
2023-01-29T22:36:08.525Z,48.01
2023-01-29T22:38:36.012Z,48.09
2023-01-29T22:41:04.542Z,47.92
2023-01-29T22:43:31.943Z,48.13
2023-01-29T22:45:59.387Z,47.95
2023-01-29T22:48:28.502Z,48.06
2023-01-29T22:51:09.787Z,47.86
2023-01-29T22:53:37.801Z,48.07
2023-01-29T22:56:05.809Z,48.11
2023-01-29T22:58:33.228Z,48.12
2023-01-29T23:01:00.609Z,48.11
2023-01-29T23:03:29.365Z,48.28
2023-01-29T23:05:56.768Z,48.16
2023-01-29T23:08:24.295Z,48.21
2023-01-29T23:10:51.690Z,48.39
2023-01-29T23:13:19.357Z,48.07
2023-01-29T23:15:46.769Z,48.31
2023-01-29T23:18:14.157Z,48.52
2023-01-29T23:20:44.078Z,48.38
2023-01-29T23:23:11.456Z,48.38
2023-01-29T23:26:07.938Z,48.40
2023-01-29T23:28:35.323Z,48.30
2023-01-29T23:31:02.995Z,48.54
2023-01-29T23:33:30.447Z,48.40
2023-01-29T23:35:59.182Z,48.46
2023-01-29T23:38:26.559Z,48.77
2023-01-29T23:40:57.760Z,48.52
2023-01-29T23:43:25.155Z,48.54
2023-01-29T23:45:52.639Z,48.55
2023-01-29T23:48:20.295Z,48.69
2023-01-29T23:50:47.662Z,48.56
2023-01-29T23:53:16.358Z,48.52
2023-01-29T23:55:44.487Z,48.70
2023-01-29T23:58:11.885Z,48.54
